LEMGLPLA

Guest
Details From LEMG - Malaga
To LPLA - LAJES
Flight Number -
Tags generated
Created
Modified
Stats Distance 1,149 nm / 2,128 km
Max Altitude 34,000 ft / 10,363 m
Waypoints 14
Social Downloads 2
Likes 0
Share VATSIM

Download

Looking for another format? Having issues loading an existing format? Contact us
Advertisement - Login to hide

Notes

Basic altitude profile: - Ascent Rate: 3000ft/min - Ascent Speed: 330kts - Cruise Altitude: 35000ft - Cruise Speed: 280kts - Descent Rate: 3000ft/min - Descent Speed: 280kts Options: - Use NATs: no - Use PACOTS: no - Use low airways: yes - Use high airways: no

Route

LEMG SVL R47 NARTA VERAM 3700N01500W 3800N02000W BEKUN H111 VMG H113 MIPRU LPLA

ID Type Via Altitude Latitude Longitude Leg Dist Tot Dist Heading (true) Name
O LEMG APT - 0 ft / 0 m 36.67978˚ -4.49590˚ - 0 nm - Malaga
SVL VOR - 26,900 ft / 8,199 m 37.42758˚ -5.76222˚ 75 nm 75 nm 307° / 306° SEVILLA VOR-DME
ONUBA FIX R47 (AWY-LO) 24,500 ft / 7,468 m 37.24672˚ -6.75999˚ 48 nm 124 nm 257° / 257° -
NAPES FIX R47 (AWY-LO) 24,500 ft / 7,468 m 37.19611˚ -7.03028˚ 13 nm 137 nm 257° / 257° -
MINTA FIX R47 (AWY-LO) 24,500 ft / 7,468 m 37.12882˚ -7.38333˚ 17 nm 155 nm 257° / 256° -
VFA VOR R47 (AWY-LO) 18,500 ft / 5,639 m 37.01352˚ -7.97501˚ 29 nm 184 nm 256° / 256° FARO VOR-DME
NARTA FIX R47 (AWY-LO) 18,500 ft / 5,639 m 36.05639˚ -12.55806˚ 228 nm 412 nm 257° / 254° -
VERAM FIX - 34,000 ft / 10,363 m 36.77250˚ -13.67528˚ 69 nm 481 nm 309° / 308° -
3700N01500W LATLON - 34,000 ft / 10,363 m 37.00000˚ -15.00000˚ 65 nm 546 nm 283° / 282° -
3800N02000W LATLON - 34,000 ft / 10,363 m 38.00000˚ -20.00000˚ 245 nm 792 nm 286° / 283° -
BEKUN FIX - 34,000 ft / 10,363 m 37.94833˚ -23.23472˚ 153 nm 945 nm 270° / 268° -
VMG VOR H111 (AWY-LO) 16,900 ft / 5,151 m 37.84611˚ -25.75806˚ 119 nm 1065 nm 268° / 266° SAO MIGUEL VORTAC
MIPRU FIX H113 (AWY-LO) 9,600 ft / 2,926 m 38.27361˚ -26.36472˚ 38 nm 1103 nm 312° / 312° -
O LPLA APT - 0 ft / 0 m 38.76441˚ -27.09348˚ 45 nm 1149 nm 311° / 310° LAJES

Altitude Profile

Advertisement - Login to hide

Weather


0- 5 10 15 20 25 30 35+ Temperature / ° C

Clouds and Precipitation
Forecast for 2017-12-13 12:00 UTC. Updated 2 hours ago

Ground ~20,000 ft ~40,000 ft Winds

LEMG

Details ICAO LEMG (AGP)
Name Malaga
Region Spain
Timezone Europe/Madrid (UTC+1.0)
Stats Elevation 52 ft / 16 m (AMSL)
Location 36.679780° -4.495899°
Runways 2
Magnetic Variation 0.877° W

METAR

LEMG 131300Z 14003KT 090V190 9999 FEW030 16/06 Q1028 NOSIG

Decode

TAF

TAF LEMG 131100Z 1312/1412 31006KT 9999 FEW030 TX15/1314Z TN07/1309Z BECMG 1312/1314 12006KT BECMG 1319/1321 30008KT

Decode

Departure Runways

ID Width Length Bearing (true) Bearing (mag) Surface Threshold Offset Overrun Length
12 148 ft / 45 m 10,057 ft / 3,065 m 117.76° 118.64° Asphalt 0 ft / 0 m 650 ft / 198 m
13 148 ft / 45 m 10,509 ft / 3,203 m 131.69° 132.57° Asphalt 0 ft / 0 m 246 ft / 75 m
30 148 ft / 45 m 10,057 ft / 3,065 m 297.78° 298.66° Asphalt 1,115 ft / 340 m 466 ft / 142 m
31 148 ft / 45 m 10,509 ft / 3,203 m 311.70° 312.58° Asphalt 0 ft / 0 m 246 ft / 75 m

LPLA

Details ICAO LPLA (TER)
Name LAJES
Region Portugal
Timezone Atlantic/Azores (UTC-1.0)
Stats Elevation 180 ft / 55 m (AMSL)
Location 38.764410° -27.093482°
Runways 1
Magnetic Variation 8.935° W

METAR

LPLA 131300Z /////KT 9999 FEW012 BKN025 18/16 Q1034

Decode

TAF

TAF LPLA 131100Z 1312/1412 27008KT 9999 FEW014 BKN030= TAF LPPD 131100Z 1312/1412 VRB05KT 9999 SCT015 PROB40 TEMPO 1312/1412 8000 -RA FEW006 BKN012 BECMG 1312/1315 28007KT

Decode

Destination Runways

ID Width Length Bearing (true) Bearing (mag) Surface Threshold Offset Overrun Length
15 197 ft / 60 m 10,869 ft / 3,313 m 140.81° 149.75° Asphalt 0 ft / 0 m 991 ft / 302 m
33 197 ft / 60 m 10,869 ft / 3,313 m 320.82° 329.76° Asphalt 0 ft / 0 m 1,040 ft / 317 m

Approach Navaids

Runway Type Ident Frequency Range Bearing (true) Bearing (mag) Slope Elevation
15 Localiser DK 109.90 MHz 18 nm / 33 km 140.82° 149.76° - 180 ft / 55 m (AMSL)
15 Glidescope DK 109.90 MHz 10 nm / 19 km 140.81° 149.75° 3.00° 159 ft / 48 m (AMSL)
33 Localiser OZ 111.50 MHz 18 nm / 33 km 320.81° 329.75° - 158 ft / 48 m (AMSL)
33 Glidescope OZ 111.50 MHz 10 nm / 19 km 320.81° 329.75° 3.20° 180 ft / 55 m (AMSL)

Popular Alternatives